sensor_id;sensor_type;location;lat;lon;timestamp;P1;durP1;ratioP1;P2;durP2;ratioP2
58222;SDS011;44020;50.890;15.796;2022-12-18T00:01:27;27.50;;;11.20;;
58222;SDS011;44020;50.890;15.796;2022-12-18T00:04:00;201.60;;;52.10;;
58222;SDS011;44020;50.890;15.796;2022-12-18T00:06:29;211.20;;;64.80;;
58222;SDS011;44020;50.890;15.796;2022-12-18T00:08:59;73.40;;;26.50;;
58222;SDS011;44020;50.890;15.796;2022-12-18T00:11:28;51.80;;;19.50;;
58222;SDS011;44020;50.890;15.796;2022-12-18T00:13:57;49.40;;;18.30;;
58222;SDS011;44020;50.890;15.796;2022-12-18T00:16:26;43.90;;;18.30;;
58222;SDS011;44020;50.890;15.796;2022-12-18T00:18:56;41.00;;;16.90;;
58222;SDS011;44020;50.890;15.796;2022-12-18T00:21:24;62.50;;;27.80;;
58222;SDS011;44020;50.890;15.796;2022-12-18T00:23:51;55.60;;;24.90;;
58222;SDS011;44020;50.890;15.796;2022-12-18T00:26:20;46.30;;;23.70;;
58222;SDS011;44020;50.890;15.796;2022-12-18T00:29:00;47.00;;;21.90;;
58222;SDS011;44020;50.890;15.796;2022-12-18T00:31:28;50.50;;;23.80;;
58222;SDS011;44020;50.890;15.796;2022-12-18T00:33:56;37.50;;;17.00;;
58222;SDS011;44020;50.890;15.796;2022-12-18T00:36:28;41.90;;;20.70;;
58222;SDS011;44020;50.890;15.796;2022-12-18T00:38:58;29.00;;;12.10;;
58222;SDS011;44020;50.890;15.796;2022-12-18T00:41:27;31.80;;;11.80;;
58222;SDS011;44020;50.890;15.796;2022-12-18T00:44:14;32.30;;;12.10;;
58222;SDS011;44020;50.890;15.796;2022-12-18T00:46:43;24.20;;;11.00;;
58222;SDS011;44020;50.890;15.796;2022-12-18T00:49:12;27.20;;;11.70;;
58222;SDS011;44020;50.890;15.796;2022-12-18T00:51:40;21.30;;;8.90;;
58222;SDS011;44020;50.890;15.796;2022-12-18T00:54:07;25.90;;;10.30;;
58222;SDS011;44020;50.890;15.796;2022-12-18T00:56:35;24.00;;;10.50;;
58222;SDS011;44020;50.890;15.796;2022-12-18T00:59:04;23.00;;;9.00;;
58222;SDS011;44020;50.890;15.796;2022-12-18T01:01:31;27.40;;;10.30;;
58222;SDS011;44020;50.890;15.796;2022-12-18T01:04:00;23.50;;;10.00;;
58222;SDS011;44020;50.890;15.796;2022-12-18T01:06:28;28.00;;;10.70;;
58222;SDS011;44020;50.890;15.796;2022-12-18T01:08:56;32.90;;;11.20;;
58222;SDS011;44020;50.890;15.796;2022-12-18T01:11:23;28.80;;;11.30;;
58222;SDS011;44020;50.890;15.796;2022-12-18T01:13:51;32.20;;;11.20;;
58222;SDS011;44020;50.890;15.796;2022-12-18T01:16:20;29.90;;;11.30;;
58222;SDS011;44020;50.890;15.796;2022-12-18T01:18:50;27.40;;;11.00;;
58222;SDS011;44020;50.890;15.796;2022-12-18T01:21:19;25.80;;;9.90;;
58222;SDS011;44020;50.890;15.796;2022-12-18T01:23:50;27.50;;;11.30;;
58222;SDS011;44020;50.890;15.796;2022-12-18T01:26:20;26.30;;;10.60;;
58222;SDS011;44020;50.890;15.796;2022-12-18T01:28:48;25.90;;;10.00;;
58222;SDS011;44020;50.890;15.796;2022-12-18T01:31:20;22.40;;;9.80;;
58222;SDS011;44020;50.890;15.796;2022-12-18T01:33:49;25.80;;;10.40;;
58222;SDS011;44020;50.890;15.796;2022-12-18T01:36:18;30.10;;;10.60;;
58222;SDS011;44020;50.890;15.796;2022-12-18T01:38:48;27.80;;;9.40;;
58222;SDS011;44020;50.890;15.796;2022-12-18T01:41:17;26.40;;;9.10;;
58222;SDS011;44020;50.890;15.796;2022-12-18T01:43:53;30.20;;;10.30;;
58222;SDS011;44020;50.890;15.796;2022-12-18T01:46:24;26.10;;;9.70;;
58222;SDS011;44020;50.890;15.796;2022-12-18T01:48:54;30.50;;;9.50;;
58222;SDS011;44020;50.890;15.796;2022-12-18T01:51:24;26.70;;;10.50;;
58222;SDS011;44020;50.890;15.796;2022-12-18T01:53:54;33.30;;;11.90;;
58222;SDS011;44020;50.890;15.796;2022-12-18T01:56:21;35.30;;;11.80;;
58222;SDS011;44020;50.890;15.796;2022-12-18T01:58:59;30.40;;;12.10;;
58222;SDS011;44020;50.890;15.796;2022-12-18T02:01:30;30.30;;;10.80;;
58222;SDS011;44020;50.890;15.796;2022-12-18T02:04:18;30.90;;;11.80;;
58222;SDS011;44020;50.890;15.796;2022-12-18T02:06:51;24.20;;;10.60;;
58222;SDS011;44020;50.890;15.796;2022-12-18T02:18:24;51.70;;;27.70;;
58222;SDS011;44020;50.890;15.796;2022-12-18T02:26:55;39.50;;;16.10;;
58222;SDS011;44020;50.890;15.796;2022-12-18T02:29:26;34.60;;;14.70;;
58222;SDS011;44020;50.890;15.796;2022-12-18T02:31:59;36.30;;;13.40;;
58222;SDS011;44020;50.890;15.796;2022-12-18T02:34:30;29.60;;;12.20;;
58222;SDS011;44020;50.890;15.796;2022-12-18T02:37:01;31.10;;;12.70;;
58222;SDS011;44020;50.890;15.796;2022-12-18T02:39:32;37.90;;;14.10;;
58222;SDS011;44020;50.890;15.796;2022-12-18T02:42:01;51.10;;;18.20;;
58222;SDS011;44020;50.890;15.796;2022-12-18T02:47:02;37.80;;;13.90;;
58222;SDS011;44020;50.890;15.796;2022-12-18T02:54:56;34.40;;;13.30;;
58222;SDS011;44020;50.890;15.796;2022-12-18T02:57:34;41.70;;;15.70;;
58222;SDS011;44020;50.890;15.796;2022-12-18T03:00:14;38.20;;;14.00;;
58222;SDS011;44020;50.890;15.796;2022-12-18T03:02:53;42.50;;;15.70;;
58222;SDS011;44020;50.890;15.796;2022-12-18T03:10:41;90.90;;;27.00;;
58222;SDS011;44020;50.890;15.796;2022-12-18T03:13:20;68.20;;;22.10;;
58222;SDS011;44020;50.890;15.796;2022-12-18T03:15:54;38.20;;;15.70;;
58222;SDS011;44020;50.890;15.796;2022-12-18T03:18:32;34.60;;;13.70;;
58222;SDS011;44020;50.890;15.796;2022-12-18T03:21:06;30.00;;;12.20;;
58222;SDS011;44020;50.890;15.796;2022-12-18T03:23:36;28.80;;;11.30;;
58222;SDS011;44020;50.890;15.796;2022-12-18T03:26:09;33.00;;;12.30;;
58222;SDS011;44020;50.890;15.796;2022-12-18T03:28:40;36.70;;;13.10;;
58222;SDS011;44020;50.890;15.796;2022-12-18T03:31:11;66.80;;;22.10;;
58222;SDS011;44020;50.890;15.796;2022-12-18T03:33:42;56.00;;;19.20;;
58222;SDS011;44020;50.890;15.796;2022-12-18T03:36:14;33.10;;;13.00;;
58222;SDS011;44020;50.890;15.796;2022-12-18T03:38:42;41.90;;;16.20;;
58222;SDS011;44020;50.890;15.796;2022-12-18T03:43:45;37.90;;;14.40;;
58222;SDS011;44020;50.890;15.796;2022-12-18T03:51:55;31.80;;;13.10;;
58222;SDS011;44020;50.890;15.796;2022-12-18T03:54:28;34.10;;;13.40;;
58222;SDS011;44020;50.890;15.796;2022-12-18T03:56:59;30.90;;;11.80;;
58222;SDS011;44020;50.890;15.796;2022-12-18T03:59:32;32.60;;;13.40;;
58222;SDS011;44020;50.890;15.796;2022-12-18T04:02:01;30.50;;;11.70;;
58222;SDS011;44020;50.890;15.796;2022-12-18T04:04:33;28.90;;;10.10;;
58222;SDS011;44020;50.890;15.796;2022-12-18T04:07:04;26.40;;;10.70;;
58222;SDS011;44020;50.890;15.796;2022-12-18T04:09:33;25.70;;;10.40;;
58222;SDS011;44020;50.890;15.796;2022-12-18T04:12:02;29.10;;;10.90;;
58222;SDS011;44020;50.890;15.796;2022-12-18T04:14:29;28.00;;;9.90;;
58222;SDS011;44020;50.890;15.796;2022-12-18T04:16:56;25.80;;;10.50;;
58222;SDS011;44020;50.890;15.796;2022-12-18T04:19:23;30.20;;;10.90;;
58222;SDS011;44020;50.890;15.796;2022-12-18T04:21:51;26.80;;;10.50;;
58222;SDS011;44020;50.890;15.796;2022-12-18T04:24:18;27.40;;;10.70;;
58222;SDS011;44020;50.890;15.796;2022-12-18T04:26:45;28.30;;;9.90;;
58222;SDS011;44020;50.890;15.796;2022-12-18T04:29:12;34.10;;;11.50;;
58222;SDS011;44020;50.890;15.796;2022-12-18T04:31:39;23.00;;;9.40;;
58222;SDS011;44020;50.890;15.796;2022-12-18T04:34:06;33.40;;;11.10;;
58222;SDS011;44020;50.890;15.796;2022-12-18T04:36:33;27.60;;;11.40;;
58222;SDS011;44020;50.890;15.796;2022-12-18T04:39:01;32.10;;;12.00;;
58222;SDS011;44020;50.890;15.796;2022-12-18T04:41:28;33.00;;;13.10;;
58222;SDS011;44020;50.890;15.796;2022-12-18T04:43:55;31.80;;;12.00;;
58222;SDS011;44020;50.890;15.796;2022-12-18T04:46:22;30.50;;;11.80;;
58222;SDS011;44020;50.890;15.796;2022-12-18T04:48:49;30.80;;;11.80;;
58222;SDS011;44020;50.890;15.796;2022-12-18T04:51:16;29.70;;;11.20;;
58222;SDS011;44020;50.890;15.796;2022-12-18T04:53:44;31.20;;;10.70;;
58222;SDS011;44020;50.890;15.796;2022-12-18T04:56:11;30.20;;;11.10;;
58222;SDS011;44020;50.890;15.796;2022-12-18T04:58:41;27.90;;;10.60;;
58222;SDS011;44020;50.890;15.796;2022-12-18T05:01:11;27.60;;;10.80;;
58222;SDS011;44020;50.890;15.796;2022-12-18T05:03:39;28.10;;;9.90;;
58222;SDS011;44020;50.890;15.796;2022-12-18T05:06:07;25.60;;;9.00;;
58222;SDS011;44020;50.890;15.796;2022-12-18T05:08:36;26.30;;;9.80;;
58222;SDS011;44020;50.890;15.796;2022-12-18T05:11:08;26.40;;;9.90;;
58222;SDS011;44020;50.890;15.796;2022-12-18T05:13:37;23.90;;;10.50;;
58222;SDS011;44020;50.890;15.796;2022-12-18T05:16:06;26.90;;;10.30;;
58222;SDS011;44020;50.890;15.796;2022-12-18T05:18:33;33.00;;;11.70;;
58222;SDS011;44020;50.890;15.796;2022-12-18T05:21:01;27.70;;;11.70;;
58222;SDS011;44020;50.890;15.796;2022-12-18T05:23:29;32.00;;;11.50;;
58222;SDS011;44020;50.890;15.796;2022-12-18T05:25:57;31.60;;;12.20;;
58222;SDS011;44020;50.890;15.796;2022-12-18T05:28:27;31.20;;;11.80;;
58222;SDS011;44020;50.890;15.796;2022-12-18T05:30:56;35.60;;;12.90;;
58222;SDS011;44020;50.890;15.796;2022-12-18T05:33:25;34.40;;;13.30;;
58222;SDS011;44020;50.890;15.796;2022-12-18T05:35:56;31.90;;;12.00;;
58222;SDS011;44020;50.890;15.796;2022-12-18T05:40:56;31.70;;;10.70;;
58222;SDS011;44020;50.890;15.796;2022-12-18T05:43:24;27.30;;;11.00;;
58222;SDS011;44020;50.890;15.796;2022-12-18T05:45:52;31.00;;;11.10;;
58222;SDS011;44020;50.890;15.796;2022-12-18T05:48:36;30.40;;;11.30;;
58222;SDS011;44020;50.890;15.796;2022-12-18T05:51:04;27.70;;;10.90;;
58222;SDS011;44020;50.890;15.796;2022-12-18T05:53:32;26.10;;;9.80;;
58222;SDS011;44020;50.890;15.796;2022-12-18T05:56:01;28.70;;;10.80;;
58222;SDS011;44020;50.890;15.796;2022-12-18T05:58:32;33.10;;;12.00;;
58222;SDS011;44020;50.890;15.796;2022-12-18T06:01:13;32.60;;;11.20;;
58222;SDS011;44020;50.890;15.796;2022-12-18T06:03:45;29.60;;;11.30;;
58222;SDS011;44020;50.890;15.796;2022-12-18T06:06:18;28.70;;;11.10;;
58222;SDS011;44020;50.890;15.796;2022-12-18T06:08:47;33.80;;;13.10;;
58222;SDS011;44020;50.890;15.796;2022-12-18T06:11:16;31.40;;;12.00;;
58222;SDS011;44020;50.890;15.796;2022-12-18T06:13:46;30.70;;;11.50;;
58222;SDS011;44020;50.890;15.796;2022-12-18T06:16:13;37.50;;;13.40;;
58222;SDS011;44020;50.890;15.796;2022-12-18T06:18:40;36.90;;;14.00;;
58222;SDS011;44020;50.890;15.796;2022-12-18T06:21:07;41.00;;;13.80;;
58222;SDS011;44020;50.890;15.796;2022-12-18T06:23:34;35.80;;;12.70;;
58222;SDS011;44020;50.890;15.796;2022-12-18T06:26:06;38.70;;;13.80;;
58222;SDS011;44020;50.890;15.796;2022-12-18T06:28:34;41.00;;;12.60;;
58222;SDS011;44020;50.890;15.796;2022-12-18T06:31:02;44.00;;;14.00;;
58222;SDS011;44020;50.890;15.796;2022-12-18T06:33:30;35.70;;;13.00;;
58222;SDS011;44020;50.890;15.796;2022-12-18T06:35:59;37.30;;;13.40;;
58222;SDS011;44020;50.890;15.796;2022-12-18T06:38:28;39.30;;;13.40;;
58222;SDS011;44020;50.890;15.796;2022-12-18T06:40:56;31.00;;;11.90;;
58222;SDS011;44020;50.890;15.796;2022-12-18T06:43:23;31.50;;;12.70;;
58222;SDS011;44020;50.890;15.796;2022-12-18T06:45:50;33.90;;;13.00;;
58222;SDS011;44020;50.890;15.796;2022-12-18T06:48:19;29.00;;;10.80;;
58222;SDS011;44020;50.890;15.796;2022-12-18T06:50:46;36.30;;;12.20;;
58222;SDS011;44020;50.890;15.796;2022-12-18T06:53:14;35.90;;;13.20;;
58222;SDS011;44020;50.890;15.796;2022-12-18T06:55:41;34.70;;;12.50;;
58222;SDS011;44020;50.890;15.796;2022-12-18T06:58:09;38.70;;;13.90;;
58222;SDS011;44020;50.890;15.796;2022-12-18T07:00:36;38.20;;;15.20;;
58222;SDS011;44020;50.890;15.796;2022-12-18T07:03:03;33.90;;;14.40;;
58222;SDS011;44020;50.890;15.796;2022-12-18T07:05:31;36.30;;;13.40;;
58222;SDS011;44020;50.890;15.796;2022-12-18T07:07:58;42.10;;;15.80;;
58222;SDS011;44020;50.890;15.796;2022-12-18T07:10:25;40.70;;;14.80;;
58222;SDS011;44020;50.890;15.796;2022-12-18T07:12:53;39.20;;;14.70;;
58222;SDS011;44020;50.890;15.796;2022-12-18T07:15:20;50.30;;;17.00;;
58222;SDS011;44020;50.890;15.796;2022-12-18T07:17:47;57.70;;;18.40;;
58222;SDS011;44020;50.890;15.796;2022-12-18T07:20:14;59.30;;;19.50;;
58222;SDS011;44020;50.890;15.796;2022-12-18T07:22:41;70.80;;;20.70;;
58222;SDS011;44020;50.890;15.796;2022-12-18T07:25:08;58.90;;;17.60;;
58222;SDS011;44020;50.890;15.796;2022-12-18T07:27:35;59.30;;;18.40;;
58222;SDS011;44020;50.890;15.796;2022-12-18T07:30:03;47.40;;;15.70;;
58222;SDS011;44020;50.890;15.796;2022-12-18T07:32:30;50.10;;;16.70;;
58222;SDS011;44020;50.890;15.796;2022-12-18T07:34:57;64.80;;;19.20;;
58222;SDS011;44020;50.890;15.796;2022-12-18T07:37:25;39.10;;;15.10;;
58222;SDS011;44020;50.890;15.796;2022-12-18T07:39:52;41.40;;;13.90;;
58222;SDS011;44020;50.890;15.796;2022-12-18T07:42:19;46.40;;;15.70;;
58222;SDS011;44020;50.890;15.796;2022-12-18T07:44:59;40.30;;;13.50;;
58222;SDS011;44020;50.890;15.796;2022-12-18T07:47:28;41.60;;;15.20;;
58222;SDS011;44020;50.890;15.796;2022-12-18T07:49:55;42.70;;;14.20;;
58222;SDS011;44020;50.890;15.796;2022-12-18T07:52:22;37.10;;;12.30;;
58222;SDS011;44020;50.890;15.796;2022-12-18T07:54:49;47.00;;;16.20;;
58222;SDS011;44020;50.890;15.796;2022-12-18T07:57:16;43.70;;;15.40;;
58222;SDS011;44020;50.890;15.796;2022-12-18T07:59:44;37.90;;;14.10;;
58222;SDS011;44020;50.890;15.796;2022-12-18T08:02:11;38.20;;;14.40;;
58222;SDS011;44020;50.890;15.796;2022-12-18T08:04:38;51.00;;;15.60;;
58222;SDS011;44020;50.890;15.796;2022-12-18T08:07:05;52.80;;;16.60;;
58222;SDS011;44020;50.890;15.796;2022-12-18T08:09:33;48.20;;;15.50;;
58222;SDS011;44020;50.890;15.796;2022-12-18T08:12:00;52.90;;;17.00;;
58222;SDS011;44020;50.890;15.796;2022-12-18T08:14:27;54.80;;;17.60;;
58222;SDS011;44020;50.890;15.796;2022-12-18T08:16:54;49.80;;;18.00;;
58222;SDS011;44020;50.890;15.796;2022-12-18T08:19:21;54.00;;;17.10;;
58222;SDS011;44020;50.890;15.796;2022-12-18T08:21:48;49.10;;;16.00;;
58222;SDS011;44020;50.890;15.796;2022-12-18T08:24:16;54.20;;;16.20;;
58222;SDS011;44020;50.890;15.796;2022-12-18T08:26:43;58.00;;;20.00;;
58222;SDS011;44020;50.890;15.796;2022-12-18T08:29:10;45.10;;;15.40;;
58222;SDS011;44020;50.890;15.796;2022-12-18T08:31:38;45.00;;;16.80;;
58222;SDS011;44020;50.890;15.796;2022-12-18T08:34:05;40.20;;;15.90;;
58222;SDS011;44020;50.890;15.796;2022-12-18T08:36:32;43.40;;;14.70;;
58222;SDS011;44020;50.890;15.796;2022-12-18T08:38:59;51.60;;;15.90;;
58222;SDS011;44020;50.890;15.796;2022-12-18T08:41:26;42.00;;;15.90;;
58222;SDS011;44020;50.890;15.796;2022-12-18T08:43:54;37.20;;;13.80;;
58222;SDS011;44020;50.890;15.796;2022-12-18T08:46:41;40.60;;;14.50;;
58222;SDS011;44020;50.890;15.796;2022-12-18T08:49:11;75.80;;;24.40;;
58222;SDS011;44020;50.890;15.796;2022-12-18T08:51:38;78.30;;;26.60;;
58222;SDS011;44020;50.890;15.796;2022-12-18T08:54:06;69.00;;;25.50;;
58222;SDS011;44020;50.890;15.796;2022-12-18T08:56:33;54.20;;;17.80;;
58222;SDS011;44020;50.890;15.796;2022-12-18T08:59:01;53.50;;;18.60;;
58222;SDS011;44020;50.890;15.796;2022-12-18T09:01:28;48.70;;;17.90;;
58222;SDS011;44020;50.890;15.796;2022-12-18T09:03:56;45.80;;;15.90;;
58222;SDS011;44020;50.890;15.796;2022-12-18T09:06:24;44.70;;;15.20;;
58222;SDS011;44020;50.890;15.796;2022-12-18T09:08:53;44.50;;;13.80;;
58222;SDS011;44020;50.890;15.796;2022-12-18T09:11:22;39.20;;;14.20;;
58222;SDS011;44020;50.890;15.796;2022-12-18T09:13:51;39.40;;;14.00;;
58222;SDS011;44020;50.890;15.796;2022-12-18T09:16:19;44.20;;;14.60;;
58222;SDS011;44020;50.890;15.796;2022-12-18T09:18:48;46.60;;;15.70;;
58222;SDS011;44020;50.890;15.796;2022-12-18T09:21:19;36.30;;;13.50;;
58222;SDS011;44020;50.890;15.796;2022-12-18T09:23:51;39.60;;;14.60;;
58222;SDS011;44020;50.890;15.796;2022-12-18T09:26:20;42.60;;;14.10;;
58222;SDS011;44020;50.890;15.796;2022-12-18T09:28:49;47.80;;;16.60;;
58222;SDS011;44020;50.890;15.796;2022-12-18T09:31:17;45.10;;;15.20;;
58222;SDS011;44020;50.890;15.796;2022-12-18T09:33:47;49.60;;;16.60;;
58222;SDS011;44020;50.890;15.796;2022-12-18T09:36:15;48.90;;;17.00;;
58222;SDS011;44020;50.890;15.796;2022-12-18T09:38:44;56.00;;;19.40;;
58222;SDS011;44020;50.890;15.796;2022-12-18T09:43:55;55.70;;;17.50;;
58222;SDS011;44020;50.890;15.796;2022-12-18T09:46:31;44.20;;;16.20;;
58222;SDS011;44020;50.890;15.796;2022-12-18T09:49:04;51.80;;;17.20;;
58222;SDS011;44020;50.890;15.796;2022-12-18T09:51:48;52.30;;;17.70;;
58222;SDS011;44020;50.890;15.796;2022-12-18T09:54:33;55.80;;;19.00;;
58222;SDS011;44020;50.890;15.796;2022-12-18T09:57:05;57.90;;;19.20;;
58222;SDS011;44020;50.890;15.796;2022-12-18T09:59:36;58.10;;;19.00;;
58222;SDS011;44020;50.890;15.796;2022-12-18T10:02:25;61.70;;;20.50;;
58222;SDS011;44020;50.890;15.796;2022-12-18T10:04:58;51.40;;;18.70;;
58222;SDS011;44020;50.890;15.796;2022-12-18T10:07:50;57.60;;;18.70;;
58222;SDS011;44020;50.890;15.796;2022-12-18T10:10:57;49.20;;;18.40;;
58222;SDS011;44020;50.890;15.796;2022-12-18T10:16:50;51.50;;;18.10;;
58222;SDS011;44020;50.890;15.796;2022-12-18T10:19:42;51.30;;;17.70;;
58222;SDS011;44020;50.890;15.796;2022-12-18T10:22:21;55.40;;;18.40;;
58222;SDS011;44020;50.890;15.796;2022-12-18T10:27:31;63.20;;;23.60;;
58222;SDS011;44020;50.890;15.796;2022-12-18T10:29:58;63.20;;;22.10;;
58222;SDS011;44020;50.890;15.796;2022-12-18T10:32:28;65.10;;;22.60;;
58222;SDS011;44020;50.890;15.796;2022-12-18T10:34:57;59.20;;;21.60;;
58222;SDS011;44020;50.890;15.796;2022-12-18T10:37:26;63.00;;;23.70;;
58222;SDS011;44020;50.890;15.796;2022-12-18T10:40:10;70.80;;;22.90;;
58222;SDS011;44020;50.890;15.796;2022-12-18T10:45:09;51.30;;;19.10;;
58222;SDS011;44020;50.890;15.796;2022-12-18T10:47:42;62.70;;;22.00;;
58222;SDS011;44020;50.890;15.796;2022-12-18T10:50:33;59.40;;;21.20;;
58222;SDS011;44020;50.890;15.796;2022-12-18T10:53:04;64.70;;;22.00;;
58222;SDS011;44020;50.890;15.796;2022-12-18T11:03:36;51.00;;;19.20;;
58222;SDS011;44020;50.890;15.796;2022-12-18T11:06:18;69.10;;;23.10;;
58222;SDS011;44020;50.890;15.796;2022-12-18T11:08:58;68.10;;;23.10;;
58222;SDS011;44020;50.890;15.796;2022-12-18T11:11:33;76.30;;;23.60;;
58222;SDS011;44020;50.890;15.796;2022-12-18T11:14:04;86.10;;;29.50;;
58222;SDS011;44020;50.890;15.796;2022-12-18T11:16:34;92.50;;;30.60;;
58222;SDS011;44020;50.890;15.796;2022-12-18T11:19:19;95.80;;;32.40;;
58222;SDS011;44020;50.890;15.796;2022-12-18T11:21:52;95.80;;;31.80;;
58222;SDS011;44020;50.890;15.796;2022-12-18T11:24:41;88.00;;;31.00;;
58222;SDS011;44020;50.890;15.796;2022-12-18T11:27:13;80.00;;;30.80;;
58222;SDS011;44020;50.890;15.796;2022-12-18T11:29:45;79.00;;;29.90;;
58222;SDS011;44020;50.890;15.796;2022-12-18T11:32:20;79.90;;;30.80;;
58222;SDS011;44020;50.890;15.796;2022-12-18T11:34:55;68.00;;;27.00;;
58222;SDS011;44020;50.890;15.796;2022-12-18T11:37:40;71.10;;;27.30;;
58222;SDS011;44020;50.890;15.796;2022-12-18T11:40:14;74.10;;;28.20;;
58222;SDS011;44020;50.890;15.796;2022-12-18T11:42:54;76.80;;;27.70;;
58222;SDS011;44020;50.890;15.796;2022-12-18T11:45:34;93.80;;;35.20;;
58222;SDS011;44020;50.890;15.796;2022-12-18T11:50:50;64.30;;;25.70;;
58222;SDS011;44020;50.890;15.796;2022-12-18T11:53:25;82.20;;;30.80;;
58222;SDS011;44020;50.890;15.796;2022-12-18T11:56:02;73.10;;;26.10;;
58222;SDS011;44020;50.890;15.796;2022-12-18T11:58:46;73.30;;;27.30;;
58222;SDS011;44020;50.890;15.796;2022-12-18T12:15:33;222.10;;;64.80;;
58222;SDS011;44020;50.890;15.796;2022-12-18T12:24:06;66.40;;;25.40;;
58222;SDS011;44020;50.890;15.796;2022-12-18T12:27:06;58.80;;;25.60;;
58222;SDS011;44020;50.890;15.796;2022-12-18T12:29:48;63.70;;;24.50;;
58222;SDS011;44020;50.890;15.796;2022-12-18T12:37:52;63.80;;;21.30;;
58222;SDS011;44020;50.890;15.796;2022-12-18T12:40:27;53.70;;;20.50;;
58222;SDS011;44020;50.890;15.796;2022-12-18T12:42:58;52.30;;;20.30;;
58222;SDS011;44020;50.890;15.796;2022-12-18T12:45:51;46.70;;;17.80;;
58222;SDS011;44020;50.890;15.796;2022-12-18T12:48:46;48.90;;;18.20;;
58222;SDS011;44020;50.890;15.796;2022-12-18T12:51:24;47.30;;;17.70;;
58222;SDS011;44020;50.890;15.796;2022-12-18T12:53:56;45.20;;;16.90;;
58222;SDS011;44020;50.890;15.796;2022-12-18T12:56:29;55.70;;;20.10;;
58222;SDS011;44020;50.890;15.796;2022-12-18T13:02:34;50.40;;;19.20;;
58222;SDS011;44020;50.890;15.796;2022-12-18T13:04:57;48.50;;;18.70;;
58222;SDS011;44020;50.890;15.796;2022-12-18T13:15:38;52.70;;;20.30;;
58222;SDS011;44020;50.890;15.796;2022-12-18T13:23:31;85.30;;;31.20;;
58222;SDS011;44020;50.890;15.796;2022-12-18T13:31:14;51.60;;;19.90;;
58222;SDS011;44020;50.890;15.796;2022-12-18T13:34:15;49.20;;;18.40;;
58222;SDS011;44020;50.890;15.796;2022-12-18T13:36:48;61.30;;;22.30;;
58222;SDS011;44020;50.890;15.796;2022-12-18T13:41:49;66.20;;;25.20;;
58222;SDS011;44020;50.890;15.796;2022-12-18T13:45:00;79.90;;;32.70;;
58222;SDS011;44020;50.890;15.796;2022-12-18T13:49:55;57.30;;;24.80;;
58222;SDS011;44020;50.890;15.796;2022-12-18T13:52:24;62.00;;;26.80;;
58222;SDS011;44020;50.890;15.796;2022-12-18T13:54:55;62.10;;;26.10;;
58222;SDS011;44020;50.890;15.796;2022-12-18T14:03:15;76.70;;;26.40;;
58222;SDS011;44020;50.890;15.796;2022-12-18T14:05:52;82.90;;;30.40;;
58222;SDS011;44020;50.890;15.796;2022-12-18T14:08:32;69.00;;;24.40;;
58222;SDS011;44020;50.890;15.796;2022-12-18T14:11:05;64.90;;;22.70;;
58222;SDS011;44020;50.890;15.796;2022-12-18T14:13:41;65.30;;;25.20;;
58222;SDS011;44020;50.890;15.796;2022-12-18T14:16:11;63.00;;;24.50;;
58222;SDS011;44020;50.890;15.796;2022-12-18T14:18:46;79.90;;;30.70;;
58222;SDS011;44020;50.890;15.796;2022-12-18T14:21:22;73.30;;;28.70;;
58222;SDS011;44020;50.890;15.796;2022-12-18T14:24:03;62.70;;;26.10;;
58222;SDS011;44020;50.890;15.796;2022-12-18T14:26:48;75.10;;;30.30;;
58222;SDS011;44020;50.890;15.796;2022-12-18T14:32:05;74.30;;;28.70;;
58222;SDS011;44020;50.890;15.796;2022-12-18T14:34:33;77.10;;;29.60;;
58222;SDS011;44020;50.890;15.796;2022-12-18T14:37:00;74.10;;;30.00;;
58222;SDS011;44020;50.890;15.796;2022-12-18T14:39:27;97.80;;;33.20;;
58222;SDS011;44020;50.890;15.796;2022-12-18T14:41:56;85.60;;;30.60;;
58222;SDS011;44020;50.890;15.796;2022-12-18T14:44:23;60.90;;;22.00;;
58222;SDS011;44020;50.890;15.796;2022-12-18T14:46:51;61.60;;;23.00;;
58222;SDS011;44020;50.890;15.796;2022-12-18T14:49:27;49.50;;;20.40;;
58222;SDS011;44020;50.890;15.796;2022-12-18T14:52:04;52.90;;;20.60;;
58222;SDS011;44020;50.890;15.796;2022-12-18T14:54:33;50.80;;;19.40;;
58222;SDS011;44020;50.890;15.796;2022-12-18T14:59:35;60.50;;;22.70;;
58222;SDS011;44020;50.890;15.796;2022-12-18T15:04:37;72.00;;;25.00;;
58222;SDS011;44020;50.890;15.796;2022-12-18T15:09:41;85.30;;;27.90;;
58222;SDS011;44020;50.890;15.796;2022-12-18T15:15:03;73.10;;;26.00;;
58222;SDS011;44020;50.890;15.796;2022-12-18T15:17:32;67.70;;;25.90;;
58222;SDS011;44020;50.890;15.796;2022-12-18T15:20:07;77.30;;;26.90;;
58222;SDS011;44020;50.890;15.796;2022-12-18T15:22:37;85.40;;;27.90;;
58222;SDS011;44020;50.890;15.796;2022-12-18T15:25:20;98.70;;;30.20;;
58222;SDS011;44020;50.890;15.796;2022-12-18T15:28:01;97.40;;;30.70;;
58222;SDS011;44020;50.890;15.796;2022-12-18T15:30:29;90.00;;;28.40;;
58222;SDS011;44020;50.890;15.796;2022-12-18T15:36:17;63.90;;;19.60;;
58222;SDS011;44020;50.890;15.796;2022-12-18T15:38:47;64.10;;;20.00;;
58222;SDS011;44020;50.890;15.796;2022-12-18T15:41:17;41.50;;;16.50;;
58222;SDS011;44020;50.890;15.796;2022-12-18T15:43:46;44.20;;;16.20;;
58222;SDS011;44020;50.890;15.796;2022-12-18T15:46:20;60.10;;;21.30;;
58222;SDS011;44020;50.890;15.796;2022-12-18T15:48:54;73.50;;;24.40;;
58222;SDS011;44020;50.890;15.796;2022-12-18T15:51:26;73.10;;;24.10;;
58222;SDS011;44020;50.890;15.796;2022-12-18T15:54:01;64.40;;;21.80;;
58222;SDS011;44020;50.890;15.796;2022-12-18T15:56:30;51.90;;;18.30;;
58222;SDS011;44020;50.890;15.796;2022-12-18T15:59:18;35.00;;;13.60;;
58222;SDS011;44020;50.890;15.796;2022-12-18T16:01:48;46.90;;;16.70;;
58222;SDS011;44020;50.890;15.796;2022-12-18T16:04:18;51.00;;;18.90;;
58222;SDS011;44020;50.890;15.796;2022-12-18T16:06:48;38.40;;;14.80;;
58222;SDS011;44020;50.890;15.796;2022-12-18T16:09:16;54.10;;;18.50;;
58222;SDS011;44020;50.890;15.796;2022-12-18T16:11:43;57.50;;;19.80;;
58222;SDS011;44020;50.890;15.796;2022-12-18T16:14:16;62.50;;;22.70;;
58222;SDS011;44020;50.890;15.796;2022-12-18T16:16:46;65.10;;;23.90;;
58222;SDS011;44020;50.890;15.796;2022-12-18T16:19:16;72.90;;;23.30;;
58222;SDS011;44020;50.890;15.796;2022-12-18T16:21:45;60.50;;;22.50;;
58222;SDS011;44020;50.890;15.796;2022-12-18T16:24:21;66.10;;;23.70;;
58222;SDS011;44020;50.890;15.796;2022-12-18T16:26:53;65.20;;;24.30;;
58222;SDS011;44020;50.890;15.796;2022-12-18T16:29:23;118.40;;;36.30;;
58222;SDS011;44020;50.890;15.796;2022-12-18T16:31:54;179.60;;;49.10;;
58222;SDS011;44020;50.890;15.796;2022-12-18T16:37:01;218.30;;;58.20;;
58222;SDS011;44020;50.890;15.796;2022-12-18T16:39:30;223.90;;;54.00;;
58222;SDS011;44020;50.890;15.796;2022-12-18T16:41:58;217.80;;;56.90;;
58222;SDS011;44020;50.890;15.796;2022-12-18T16:44:26;197.40;;;54.10;;
58222;SDS011;44020;50.890;15.796;2022-12-18T16:46:54;198.80;;;53.00;;
58222;SDS011;44020;50.890;15.796;2022-12-18T16:49:22;190.40;;;53.70;;
58222;SDS011;44020;50.890;15.796;2022-12-18T16:51:49;171.70;;;47.20;;